Terminal Aerodrome Forecast
Issued by NWS

Home | Current Version | Previous Version | Text Only | Print | Product List | Glossary On
Versions: 1 2 3 4 5 6 7 8 9 10 11 12 13 14 15 16
000
FTUS45 KTFX 232300
TAFLWT
TAF
KLWT 232335Z 2400/2424 24025G35KT P6SM SCT080 BKN150
     FM240300 27010KT P6SM SCT150
     FM241900 28010KT P6SM SCT060 BKN100=

USA.gov is the U.S. government's official web portal to all federal, state and local government web resources and services.